Polar Endurance — WDG2085 — position and weather

sailwx.info

Track history (hours):
 
Tides and Currents Weather Stations Pressure Air Temp Water Temp Dewpoint Dewpoint Depression Visibility Wind Speed Wind Dir Waves Ship Positions

Polar Endurance

Owner: Dunlap Towing Co., LaConner, WA. More information available from US FCC via Universal Licensing System and Coast Guard Vessel Documentation Center.

Last reported at 2015-Sep-02 18:00 UTC. Time now 2015-Sep-03 06:54 UTC.
Position N 58°12' W 136°48'.

Length 37 m.

Type: Towing. MMSI: 303144000.

Wind from 070 at 13 knots

Waves 0.5 meters (2 feet)

Barometer 1012.1 mb
Air temperature 18.9 ° C
Visibility: greater than 5.4 NM
Water temperature 9.5 ° C

Date/timePositionNaut miles runAvg speedWind from/ knotsBaromVisibWave heightAir tempDewpointWater temp
2015-Sep-02 18:00N 58°12' W 136°48'2510.3 070 / 131012.1 5.4 0.518.9 9.5
2015-Sep-02 15:33N 58°16' W 136°01'146 5.6
2015-Sep-01 13:25N 56°21' W 133°13'372 8.7
2015-Aug-30 18:33N 51°05' W 127°43'10 9.7
2015-Aug-30 17:33N 50°59' W 127°32'10 9.6
2015-Aug-30 16:33N 50°53' W 127°20'1010.0
2015-Aug-30 15:33N 50°48' W 127°06'89 8.1
2015-Aug-30 04:29N 49°58' W 125°10'6 5.1
2015-Aug-30 03:12N 49°55' W 125°02'11 6.1
2015-Aug-30 01:27N 49°48' W 124°49'7 8.2
2015-Aug-30 00:32N 49°43' W 124°40'1010.2
2015-Aug-29 23:32N 49°37' W 124°28'1010.0
2015-Aug-29 22:33N 49°32' W 124°15'1110.7
2015-Aug-29 21:34N 49°26' W 124°01'1110.7
2015-Aug-29 20:33N 49°20' W 123°47'1310.9
2015-Aug-29 19:23N 49°12' W 123°33'911.2
2015-Aug-29 18:34N 49°05' W 123°22'10 9.9
2015-Aug-29 17:34N 48°59' W 123°11'9 9.5
2015-Aug-29 16:33N 48°52' W 123°00'9 9.1
2015-Aug-29 15:33N 48°47' W 122°49'8 8.4
2015-Aug-29 14:33N 48°39' W 122°43'7 7.4
2015-Aug-29 13:34N 48°32' W 122°44'27 7.9
2015-Aug-29 10:07N 48°05' W 122°38'6 8.5
2015-Aug-29 09:25N 47°60' W 122°36'7 8.3
2015-Aug-29 08:34N 47°54' W 122°28'10 9.7
2015-Aug-29 07:34N 47°45' W 122°26'9 8.5
2015-Aug-29 06:34N 47°37' W 122°23'1 1.3
2015-Aug-29 05:33N 47°36' W 122°22'0 0.4
2015-Aug-29 04:31N 47°35' W 122°21'0 0.0
2015-Aug-29 03:33N 47°35' W 122°21'0 0.0
2015-Aug-29 02:33N 47°35' W 122°21'0 0.0
2015-Aug-29 01:32N 47°35' W 122°21'0 0.0
2015-Aug-29 00:29N 47°35' W 122°21'0 0.0
2015-Aug-28 23:32N 47°35' W 122°21'0 0.0
2015-Aug-28 22:30N 47°35' W 122°21'1 1.2
2015-Aug-28 21:34N 47°36' W 122°23'1211.8
2015-Aug-28 20:33N 47°48' W 122°25'1212.1
2015-Aug-28 19:33N 47°58' W 122°16'2 2.2
2015-Aug-28 18:33N 47°59' W 122°13'0 0.0
2015-Aug-28 17:33N 47°59' W 122°13'0 0.0
2015-Aug-28 16:33N 47°59' W 122°13'  
Track history (hours):
 
Tides and Currents Weather Stations Pressure Air Temp Water Temp Dewpoint Dewpoint Depression Visibility Wind Speed Wind Dir Waves Ship Positions

Polar Endurance

Owner: Dunlap Towing Co., LaConner, WA. More information available from US FCC via Universal Licensing System and Coast Guard Vessel Documentation Center.

Last reported at 2015-Sep-02 18:00 UTC. Time now 2015-Sep-03 06:54 UTC.
Position N 58°12' W 136°48'.

Length 37 m.

Type: Towing. MMSI: 303144000.

Wind from 070 at 13 knots

Waves 0.5 meters (2 feet)

Barometer 1012.1 mb
Air temperature 18.9 ° C
Visibility: greater than 5.4 NM
Water temperature 9.5 ° C

Date/timePositionNaut miles runAvg speedWind from/ knotsBaromVisibWave heightAir tempDewpointWater temp
2015-Sep-02 18:00N 58°12' W 136°48'2510.3 070 / 131012.1 5.4 0.518.9 9.5
2015-Sep-02 15:33N 58°16' W 136°01'146 5.6
2015-Sep-01 13:25N 56°21' W 133°13'372 8.7
2015-Aug-30 18:33N 51°05' W 127°43'10 9.7
2015-Aug-30 17:33N 50°59' W 127°32'10 9.6
2015-Aug-30 16:33N 50°53' W 127°20'1010.0
2015-Aug-30 15:33N 50°48' W 127°06'89 8.1
2015-Aug-30 04:29N 49°58' W 125°10'6 5.1
2015-Aug-30 03:12N 49°55' W 125°02'11 6.1
2015-Aug-30 01:27N 49°48' W 124°49'7 8.2
2015-Aug-30 00:32N 49°43' W 124°40'1010.2
2015-Aug-29 23:32N 49°37' W 124°28'1010.0
2015-Aug-29 22:33N 49°32' W 124°15'1110.7
2015-Aug-29 21:34N 49°26' W 124°01'1110.7
2015-Aug-29 20:33N 49°20' W 123°47'1310.9
2015-Aug-29 19:23N 49°12' W 123°33'911.2
2015-Aug-29 18:34N 49°05' W 123°22'10 9.9
2015-Aug-29 17:34N 48°59' W 123°11'9 9.5
2015-Aug-29 16:33N 48°52' W 123°00'9 9.1
2015-Aug-29 15:33N 48°47' W 122°49'8 8.4
2015-Aug-29 14:33N 48°39' W 122°43'7 7.4
2015-Aug-29 13:34N 48°32' W 122°44'27 7.9
2015-Aug-29 10:07N 48°05' W 122°38'6 8.5
2015-Aug-29 09:25N 47°60' W 122°36'7 8.3
2015-Aug-29 08:34N 47°54' W 122°28'10 9.7
2015-Aug-29 07:34N 47°45' W 122°26'9 8.5
2015-Aug-29 06:34N 47°37' W 122°23'1 1.3
2015-Aug-29 05:33N 47°36' W 122°22'0 0.4
2015-Aug-29 04:31N 47°35' W 122°21'0 0.0
2015-Aug-29 03:33N 47°35' W 122°21'0 0.0
2015-Aug-29 02:33N 47°35' W 122°21'0 0.0
2015-Aug-29 01:32N 47°35' W 122°21'0 0.0
2015-Aug-29 00:29N 47°35' W 122°21'0 0.0
2015-Aug-28 23:32N 47°35' W 122°21'0 0.0
2015-Aug-28 22:30N 47°35' W 122°21'1 1.2
2015-Aug-28 21:34N 47°36' W 122°23'1211.8
2015-Aug-28 20:33N 47°48' W 122°25'1212.1
2015-Aug-28 19:33N 47°58' W 122°16'2 2.2
2015-Aug-28 18:33N 47°59' W 122°13'0 0.0
2015-Aug-28 17:33N 47°59' W 122°13'0 0.0
2015-Aug-28 16:33N 47°59' W 122°13'  

Dump ship's entire track history